Time;durP1;ratioP1;P1;durP2;ratioP2;P2;SDS_P1;SDS_P2;PMS_P1;PMS_P2;Temp;Humidity;BMP_temperature;BMP_pressure;BME280_temperature;BME280_humidity;BME280_pressure;Samples;Min_cycle;Max_cycle;Signal;HPM_P1;HPM_P2
2022/06/12 00:00:18;;;;;;;24.67;3.80;;;14.70;99.90;;;;;;5051956;28;20628;-55
2022/06/12 00:02:44;;;;;;;19.25;3.28;;;14.60;99.90;;;;;;5052563;28;20184;-55
2022/06/12 00:05:11;;;;;;;20.33;3.35;;;14.40;99.90;;;;;;5051611;28;20199;-55
2022/06/12 00:07:37;;;;;;;26.38;4.18;;;14.50;99.90;;;;;;5052353;28;20204;-55
2022/06/12 00:10:03;;;;;;;16.83;3.42;;;14.20;99.90;;;;;;5052405;28;20584;-55
2022/06/12 00:12:32;;;;;;;16.92;3.55;;;14.30;99.90;;;;;;5033610;28;20268;-55
2022/06/12 00:14:57;;;;;;;27.23;3.83;;;14.30;99.90;;;;;;5034919;28;20706;-55
2022/06/12 00:17:23;;;;;;;17.75;3.58;;;14.20;99.90;;;;;;5051720;28;20204;-56
2022/06/12 00:19:50;;;;;;;26.17;3.95;;;14.30;99.90;;;;;;5051810;28;20189;-56
2022/06/12 00:22:17;;;;;;;25.45;4.15;;;14.30;99.90;;;;;;5051873;28;20188;-56
2022/06/12 00:24:43;;;;;;;18.90;3.83;;;14.30;99.90;;;;;;5052127;28;20173;-56
2022/06/12 00:27:09;;;;;;;15.82;3.53;;;14.20;99.90;;;;;;5052118;28;20613;-56
2022/06/12 00:29:36;;;;;;;22.63;3.83;;;14.00;99.90;;;;;;5052057;28;20180;-56
2022/06/12 00:32:10;;;;;;;19.70;3.20;;;14.20;99.90;;;;;;5051536;28;20258;-56
2022/06/12 00:34:51;;;;;;;18.63;3.78;;;14.20;99.90;;;;;;5065117;28;20256;-55
2022/06/12 00:37:19;;;;;;;18.40;3.17;;;14.10;99.90;;;;;;5051374;28;20183;-56
2022/06/12 00:39:48;;;;;;;21.23;3.53;;;14.10;99.90;;;;;;5051845;28;20169;-55
2022/06/12 00:42:23;;;;;;;23.50;3.65;;;14.10;99.90;;;;;;5051431;28;20231;-56
2022/06/12 00:44:49;;;;;;;22.58;4.18;;;14.00;99.90;;;;;;5051437;28;20667;-56
2022/06/12 00:47:16;;;;;;;27.30;4.00;;;14.10;99.90;;;;;;5051582;28;20266;-56
2022/06/12 00:50:05;;;;;;;22.45;4.25;;;14.00;99.90;;;;;;5050897;28;20178;-56
2022/06/12 00:52:42;;;;;;;21.85;3.42;;;14.00;99.90;;;;;;5050757;28;20185;-56
2022/06/12 00:55:29;;;;;;;18.17;3.65;;;14.00;99.90;;;;;;5051093;28;20176;-56
2022/06/12 00:58:22;;;;;;;21.35;3.20;;;14.10;99.90;;;;;;5051360;28;20176;-56
2022/06/12 01:00:49;;;;;;;15.75;3.45;;;14.00;99.90;;;;;;5049574;28;20181;-56
2022/06/12 01:03:15;;;;;;;20.65;4.00;;;14.00;99.90;;;;;;5050923;28;20208;-56
2022/06/12 01:08:28;;;;;;;26.05;3.80;;;14.10;99.90;;;;;;5051064;28;20183;-56
2022/06/12 01:10:58;;;;;;;29.05;4.25;;;13.90;99.90;;;;;;5050871;28;20574;-56
2022/06/12 01:13:27;;;;;;;23.77;4.10;;;14.10;99.90;;;;;;5050381;28;20226;-57
2022/06/12 01:15:57;;;;;;;22.17;4.10;;;14.10;99.90;;;;;;5051116;28;20177;-56
2022/06/12 01:18:27;;;;;;;25.27;3.97;;;14.10;99.90;;;;;;5050322;28;20161;-56
2022/06/12 01:20:53;;;;;;;23.65;3.60;;;14.30;99.90;;;;;;5050603;28;20671;-56
2022/06/12 01:23:48;;;;;;;17.55;3.40;;;14.10;99.90;;;;;;5049973;28;20182;-56
2022/06/12 01:26:35;;;;;;;18.75;3.60;;;14.10;99.90;;;;;;5050883;28;20208;-56
2022/06/12 01:29:08;;;;;;;26.55;4.07;;;14.10;99.90;;;;;;5050831;28;20210;-58
2022/06/12 01:31:50;;;;;;;18.50;3.72;;;14.10;99.90;;;;;;5050430;28;20184;-56
2022/06/12 01:34:22;;;;;;;23.38;3.78;;;14.00;99.90;;;;;;5050159;28;20656;-56
2022/06/12 01:37:13;;;;;;;34.70;4.68;;;13.70;99.90;;;;;;5046568;28;20222;-56
2022/06/12 01:39:46;;;;;;;28.83;4.72;;;13.80;99.90;;;;;;5048360;28;20181;-56
2022/06/12 01:42:36;;;;;;;16.80;3.25;;;13.60;99.90;;;;;;5050798;28;20169;-55
2022/06/12 01:45:30;;;;;;;21.00;3.47;;;14.00;99.90;;;;;;5049802;28;20201;-56
2022/06/12 01:48:21;;;;;;;20.50;4.00;;;13.90;99.90;;;;;;5050120;28;20283;-56
2022/06/12 01:50:51;;;;;;;19.83;3.70;;;13.90;99.90;;;;;;5050260;28;20188;-56
2022/06/12 01:53:29;;;;;;;26.17;4.18;;;13.80;99.90;;;;;;5050057;28;20196;-56
2022/06/12 01:56:15;;;;;;;21.88;3.50;;;13.80;99.90;;;;;;5050420;28;20176;-56
2022/06/12 01:59:00;;;;;;;21.45;3.78;;;13.80;99.90;;;;;;5050498;28;20562;-56
2022/06/12 02:02:05;;;;;;;18.70;3.72;;;13.80;99.90;;;;;;5050529;28;20173;-56
2022/06/12 02:04:47;;;;;;;18.83;3.72;;;13.70;99.90;;;;;;5049865;28;20243;-56
2022/06/12 02:07:19;;;;;;;25.38;4.10;;;13.80;99.90;;;;;;5049712;28;20181;-56
2022/06/12 02:09:53;;;;;;;28.33;3.83;;;13.80;99.90;;;;;;5050457;28;20258;-56
2022/06/12 02:15:08;;;;;;;22.33;3.67;;;;;;;;;;5050435;28;20188;-57
2022/06/12 02:17:44;;;;;;;20.38;3.88;;;13.40;99.90;;;;;;5049993;28;20197;-57
2022/06/12 02:20:14;;;;;;;20.40;3.95;;;13.70;99.90;;;;;;5046676;28;20789;-54
2022/06/12 02:22:43;;;;;;;19.35;3.72;;;13.60;99.90;;;;;;5049560;28;20188;-54
2022/06/12 02:25:17;;;;;;;29.15;3.80;;;13.60;99.90;;;;;;5032427;28;20193;-54
2022/06/12 02:27:49;;;;;;;25.73;4.53;;;13.60;99.90;;;;;;5042024;28;20185;-54
2022/06/12 02:30:27;;;;;;;21.33;3.83;;;13.50;99.90;;;;;;5045332;28;20173;-54
2022/06/12 02:32:58;;;;;;;22.92;3.80;;;13.70;99.90;;;;;;5033850;28;20173;-54
2022/06/12 02:35:32;;;;;;;22.80;4.10;;;13.70;99.90;;;;;;5051892;28;20188;-54
2022/06/12 02:38:07;;;;;;;23.20;4.05;;;13.80;99.90;;;;;;5053344;28;20195;-54
2022/06/12 02:40:41;;;;;;;22.48;4.25;;;13.80;99.90;;;;;;5046729;28;20542;-54
2022/06/12 02:43:10;;;;;;;27.33;3.90;;;14.00;99.90;;;;;;5054031;28;20178;-54
2022/06/12 02:45:58;;;;;;;32.08;4.13;;;13.90;99.90;;;;;;5053366;28;20217;-54
2022/06/12 02:48:25;;;;;;;21.42;4.32;;;13.80;99.90;;;;;;5053672;28;20221;-54
2022/06/12 02:51:06;;;;;;;21.67;3.90;;;14.60;99.90;;;;;;5053427;28;20181;-54
2022/06/12 02:54:03;;;;;;;22.77;3.72;;;13.80;99.90;;;;;;5053784;28;20223;-54
2022/06/12 02:56:58;;;;;;;16.65;3.47;;;13.70;99.90;;;;;;5053716;28;20177;-54
2022/06/12 02:59:45;;;;;;;20.45;3.75;;;13.60;99.90;;;;;;5053460;28;20170;-54
2022/06/12 03:02:19;;;;;;;21.55;4.10;;;13.40;99.90;;;;;;5053419;28;20177;-54
2022/06/12 03:05:01;;;;;;;19.23;3.60;;;13.60;99.90;;;;;;5052781;28;20173;-54
2022/06/12 03:07:32;;;;;;;25.58;5.22;;;13.60;99.90;;;;;;5053854;28;20189;-55
2022/06/12 03:10:04;;;;;;;25.02;4.28;;;13.60;99.90;;;;;;5053431;28;20169;-54
2022/06/12 03:12:32;;;;;;;22.30;3.80;;;13.80;99.90;;;;;;5053145;28;20704;-54
2022/06/12 03:14:59;;;;;;;27.60;4.20;;;13.50;99.90;;;;;;5052843;28;20683;-54
2022/06/12 03:17:25;;;;;;;20.83;3.50;;;13.60;99.90;;;;;;5052789;28;20725;-54
2022/06/12 03:19:54;;;;;;;24.50;4.43;;;13.60;99.90;;;;;;5053355;28;20165;-54
2022/06/12 03:22:22;;;;;;;23.90;3.95;;;13.60;99.90;;;;;;5052822;28;20180;-54
2022/06/12 03:25:22;;;;;;;20.13;3.72;;;13.60;99.90;;;;;;5052914;28;20176;-54
2022/06/12 03:28:03;;;;;;;29.20;4.22;;;11.70;99.90;;;;;;5044327;28;20820;-54
2022/06/12 03:30:40;;;;;;;19.73;4.28;;;13.60;99.90;;;;;;5052561;28;20169;-54
2022/06/12 03:33:37;;;;;;;24.35;3.85;;;13.60;99.90;;;;;;5053082;28;20181;-55
2022/06/12 03:36:21;;;;;;;22.15;3.80;;;13.50;99.90;;;;;;5052494;28;20173;-55
2022/06/12 03:38:55;;;;;;;20.95;3.53;;;13.60;99.90;;;;;;5052799;28;20187;-55
2022/06/12 03:41:30;;;;;;;25.00;4.43;;;13.50;99.90;;;;;;5052321;28;20169;-54
2022/06/12 03:44:14;;;;;;;22.65;4.32;;;13.50;99.90;;;;;;5064362;28;20180;-55
2022/06/12 03:46:43;;;;;;;23.85;3.95;;;13.50;99.90;;;;;;5072148;28;20274;-55
2022/06/12 03:49:47;;;;;;;21.70;4.10;;;13.40;99.90;;;;;;5065554;28;20243;-55
2022/06/12 03:52:17;;;;;;;25.85;4.38;;;13.30;99.90;;;;;;5052920;28;20195;-55
2022/06/12 03:54:57;;;;;;;29.92;4.60;;;13.40;99.90;;;;;;5052390;28;20188;-55
2022/06/12 03:57:53;;;;;;;23.48;3.95;;;13.40;99.90;;;;;;5051861;28;20227;-55
2022/06/12 04:00:24;;;;;;;29.88;4.25;;;13.30;99.90;;;;;;5052385;28;20227;-55
2022/06/12 04:02:56;;;;;;;23.38;4.43;;;13.50;99.90;;;;;;5052581;28;20590;-55
2022/06/12 04:05:26;;;;;;;31.70;4.90;;;13.30;99.90;;;;;;5051617;28;20201;-54
2022/06/12 04:07:55;;;;;;;26.70;4.97;;;13.30;99.90;;;;;;5052857;28;20197;-61
2022/06/12 04:10:26;;;;;;;23.02;4.57;;;13.40;99.90;;;;;;5052333;28;20169;-61
2022/06/12 04:12:56;;;;;;;19.90;4.80;;;13.40;99.90;;;;;;5052149;28;20268;-56
2022/06/12 04:16:02;;;;;;;27.67;5.25;;;13.10;99.90;;;;;;5051592;28;20185;-55
2022/06/12 04:18:32;;;;;;;27.17;5.75;;;13.10;99.90;;;;;;5049919;28;20250;-56
2022/06/12 04:21:13;;;;;;;26.33;4.85;;;13.10;99.90;;;;;;5051754;28;20706;-56
2022/06/12 04:23:47;;;;;;;28.67;4.97;;;13.30;99.90;;;;;;5051945;28;20204;-56
2022/06/12 04:26:27;;;;;;;25.50;4.50;;;13.20;99.90;;;;;;5051978;28;20223;-56
2022/06/12 04:29:03;;;;;;;33.65;4.78;;;13.20;99.90;;;;;;5052050;28;20705;-56
2022/06/12 04:31:31;;;;;;;32.95;5.68;;;13.30;99.90;;;;;;5051197;28;20263;-56
2022/06/12 04:34:12;;;;;;;26.20;4.70;;;13.30;99.90;;;;;;5051893;28;20196;-56
2022/06/12 04:36:39;;;;;;;27.27;6.53;;;13.30;99.90;;;;;;5051120;28;20219;-57
2022/06/12 04:39:06;;;;;;;29.90;5.47;;;13.30;99.90;;;;;;5051429;28;20181;-57
2022/06/12 04:41:35;;;;;;;27.30;5.25;;;13.30;99.90;;;;;;5050744;28;20177;-56
2022/06/12 04:44:02;;;;;;;25.38;5.05;;;13.30;99.90;;;;;;5051298;28;20178;-57
2022/06/12 04:46:28;;;;;;;29.63;5.68;;;13.30;99.90;;;;;;5051544;28;20222;-55
2022/06/12 04:48:56;;;;;;;31.75;5.47;;;13.30;99.90;;;;;;5050807;28;20695;-56
2022/06/12 04:51:22;;;;;;;35.25;6.30;;;13.40;99.90;;;;;;5062402;28;20192;-56
2022/06/12 04:53:48;;;;;;;32.20;6.03;;;13.40;99.90;;;;;;5071140;28;20234;-56
2022/06/12 04:56:16;;;;;;;23.75;5.45;;;13.40;99.90;;;;;;5057190;28;20177;-55
2022/06/12 04:58:43;;;;;;;33.75;6.07;;;15.40;99.90;;;;;;5050477;28;20648;-54
2022/06/12 05:01:09;;;;;;;30.33;6.13;;;13.40;99.90;;;;;;5051380;28;20169;-54
2022/06/12 05:03:36;;;;;;;35.53;6.07;;;13.40;99.90;;;;;;5051263;28;20181;-54
2022/06/12 05:06:02;;;;;;;31.88;5.40;;;13.50;99.90;;;;;;5050751;28;20228;-54
2022/06/12 05:08:28;;;;;;;26.63;5.97;;;13.40;99.90;;;;;;5051082;28;20184;-56
2022/06/12 05:10:54;;;;;;;34.25;5.60;;;13.50;99.90;;;;;;5050880;28;20192;-54
2022/06/12 05:13:20;;;;;;;31.58;5.70;;;13.50;99.90;;;;;;5050747;28;20181;-54
2022/06/12 05:15:46;;;;;;;27.50;5.75;;;13.60;99.90;;;;;;5051177;28;20165;-57
2022/06/12 05:18:14;;;;;;;32.92;6.13;;;13.60;99.90;;;;;;5043032;28;20174;-54
2022/06/12 05:20:43;;;;;;;25.77;5.72;;;13.60;99.90;;;;;;5045370;28;20188;-55
2022/06/12 05:23:09;;;;;;;30.80;6.45;;;13.70;99.90;;;;;;5050863;28;20170;-55
2022/06/12 05:25:36;;;;;;;36.00;7.03;;;13.80;99.90;;;;;;5050874;28;20219;-55
2022/06/12 05:28:03;;;;;;;29.48;6.65;;;13.80;99.90;;;;;;5050707;28;20597;-55
2022/06/12 05:30:31;;;;;;;24.27;5.18;;;13.90;99.90;;;;;;5050467;28;20231;-55
2022/06/12 05:32:58;;;;;;;26.00;5.80;;;14.00;99.90;;;;;;5050733;28;20177;-55
2022/06/12 05:35:24;;;;;;;29.15;5.45;;;14.40;99.90;;;;;;5050600;28;20196;-55
2022/06/12 05:37:51;;;;;;;30.88;6.30;;;14.50;99.90;;;;;;5050794;28;20648;-55
2022/06/12 05:40:24;;;;;;;34.28;5.95;;;14.50;99.90;;;;;;5050576;28;20177;-55
2022/06/12 05:42:50;;;;;;;28.55;5.90;;;15.00;99.90;;;;;;5050213;28;20651;-55
2022/06/12 05:45:20;;;;;;;22.25;6.03;;;14.90;99.90;;;;;;5050604;28;20734;-56
2022/06/12 05:47:52;;;;;;;34.55;7.00;;;15.00;99.90;;;;;;5050495;28;20357;-56
2022/06/12 05:50:21;;;;;;;38.03;6.32;;;15.20;99.90;;;;;;5050619;28;20165;-55
2022/06/12 05:52:47;;;;;;;24.80;5.25;;;15.20;99.90;;;;;;5050134;28;20177;-56
2022/06/12 05:55:13;;;;;;;29.13;6.55;;;15.30;99.90;;;;;;5065238;28;20172;-55
2022/06/12 05:57:39;;;;;;;36.35;6.28;;;15.30;99.90;;;;;;5070382;28;20658;-56
2022/06/12 06:00:08;;;;;;;27.40;6.30;;;15.30;99.90;;;;;;5070525;28;20631;-55
2022/06/12 06:02:34;;;;;;;28.25;6.72;;;15.40;99.90;;;;;;5059813;28;20182;-55
2022/06/12 06:05:01;;;;;;;23.77;6.45;;;15.30;99.90;;;;;;5050412;28;20192;-56
2022/06/12 06:07:27;;;;;;;30.90;7.10;;;15.30;99.90;;;;;;5050528;28;20165;-55
2022/06/12 06:09:52;;;;;;;27.63;6.65;;;15.10;99.90;;;;;;5051784;28;20197;-55
2022/06/12 06:12:18;;;;;;;34.88;7.13;;;15.30;99.90;;;;;;5054148;28;20269;-55
2022/06/12 06:14:44;;;;;;;26.45;6.57;;;;;;;;;;5036872;28;20658;-55
2022/06/12 06:17:10;;;;;;;30.83;6.90;;;15.40;99.90;;;;;;5053916;28;20185;-56
2022/06/12 06:19:36;;;;;;;26.23;5.75;;;15.40;99.90;;;;;;5053774;28;20268;-55
2022/06/12 06:22:02;;;;;;;36.88;6.03;;;15.40;99.90;;;;;;5054460;28;20249;-56
2022/06/12 06:24:27;;;;;;;30.70;6.40;;;15.30;99.90;;;;;;5054147;28;20177;-58
2022/06/12 06:26:53;;;;;;;29.17;5.13;;;15.30;99.90;;;;;;5054179;28;20201;-58
2022/06/12 06:29:19;;;;;;;24.45;5.57;;;15.30;99.90;;;;;;5053970;28;20180;-58
2022/06/12 06:31:45;;;;;;;30.42;5.97;;;15.20;99.90;;;;;;5054214;28;20181;-58
2022/06/12 06:34:13;;;;;;;29.52;6.00;;;15.30;99.90;;;;;;5053797;28;20326;-55
2022/06/12 06:36:39;;;;;;;27.73;6.03;;;15.20;99.90;;;;;;5053153;28;20331;-63
2022/06/12 06:39:05;;;;;;;26.98;6.68;;;15.30;99.90;;;;;;5052874;28;20184;-63
2022/06/12 06:41:31;;;;;;;25.55;6.18;;;15.60;99.90;;;;;;5053357;28;20173;-63
2022/06/12 06:46:41;;;;;;;22.35;5.78;;;15.60;99.90;;;;;;5053285;28;20304;-63
2022/06/12 06:49:07;;;;;;;27.33;5.63;;;16.10;99.90;;;;;;5053467;28;20630;-63
2022/06/12 06:51:33;;;;;;;32.17;6.55;;;16.00;99.90;;;;;;5053862;28;20174;-56
2022/06/12 06:53:59;;;;;;;19.92;5.22;;;16.00;99.90;;;;;;5052773;28;20185;-60
2022/06/12 06:56:24;;;;;;;22.88;6.30;;;15.60;99.90;;;;;;5053596;28;20593;-61
2022/06/12 06:58:50;;;;;;;23.08;6.03;;;15.70;99.90;;;;;;5073564;28;20262;-62
2022/06/12 07:01:17;;;;;;;22.85;6.65;;;;;;;;;;5065203;28;20182;-62
2022/06/12 07:03:43;;;;;;;27.15;7.75;;;15.70;99.90;;;;;;5053167;28;20184;-62
2022/06/12 07:06:11;;;;;;;29.88;7.68;;;15.80;99.90;;;;;;5053516;28;20220;-62
2022/06/12 07:08:38;;;;;;;28.45;7.38;;;15.90;99.90;;;;;;5053191;28;20193;-62
2022/06/12 07:11:03;;;;;;;22.80;7.07;;;16.10;99.90;;;;;;5053099;28;20180;-61
2022/06/12 07:13:29;;;;;;;17.95;6.13;;;16.10;99.90;;;;;;5052693;28;20161;-60
2022/06/12 07:15:55;;;;;;;30.20;7.30;;;;;;;;;;5052217;28;20184;-62
2022/06/12 07:18:22;;;;;;;27.33;7.13;;;16.20;99.90;;;;;;5051938;28;20169;-62
2022/06/12 07:20:53;;;;;;;26.65;6.55;;;16.10;99.90;;;;;;5062938;28;20177;-62
2022/06/12 07:23:21;;;;;;;21.98;5.88;;;16.20;99.90;;;;;;5071444;28;20307;-62
2022/06/12 07:25:51;;;;;;;24.02;6.65;;;16.50;99.90;;;;;;5051124;28;20216;-61
2022/06/12 07:28:18;;;;;;;22.45;5.65;;;16.80;99.90;;;;;;5052750;28;20187;-60
2022/06/12 07:30:45;;;;;;;27.50;6.03;;;16.90;99.90;;;;;;5046283;28;20204;-60
2022/06/12 07:33:11;;;;;;;21.83;5.40;;;16.80;99.90;;;;;;5049268;28;20177;-60
2022/06/12 07:35:39;;;;;;;24.77;5.68;;;17.00;99.90;;;;;;5058109;28;20199;-60
2022/06/12 07:38:06;;;;;;;24.13;4.68;;;17.00;99.90;;;;;;5064673;28;20254;-60
2022/06/12 07:40:39;;;;;;;22.98;4.78;;;16.90;99.90;;;;;;5052372;28;20548;-60
2022/06/12 07:43:05;;;;;;;17.63;4.85;;;16.80;99.90;;;;;;5053939;28;20200;-60
2022/06/12 07:45:30;;;;;;;20.95;4.72;;;16.70;99.90;;;;;;5063459;28;20255;-60
2022/06/12 07:47:57;;;;;;;22.33;5.50;;;16.60;99.90;;;;;;5057663;28;20638;-61
2022/06/12 07:50:23;;;;;;;20.45;4.35;;;16.60;99.90;;;;;;5070621;28;20172;-60
2022/06/12 07:52:48;;;;;;;25.70;4.32;;;16.50;99.90;;;;;;5072526;28;20179;-65
2022/06/12 07:55:17;;;;;;;20.00;4.65;;;16.60;99.90;;;;;;5072640;28;20739;-65
2022/06/12 07:57:44;;;;;;;22.02;4.03;;;16.60;99.90;;;;;;5072400;28;20177;-63
2022/06/12 08:00:13;;;;;;;17.00;3.38;;;16.50;99.90;;;;;;5072045;28;20184;-62
2022/06/12 08:02:40;;;;;;;18.90;3.55;;;16.60;99.90;;;;;;5071049;28;20168;-62
2022/06/12 08:05:06;;;;;;;16.60;3.92;;;16.50;99.90;;;;;;5071980;28;20653;-63
2022/06/12 08:07:33;;;;;;;16.58;3.78;;;16.70;99.90;;;;;;5072481;28;20195;-65
2022/06/12 08:10:00;;;;;;;23.58;4.05;;;16.80;99.90;;;;;;5052533;28;20531;-66
2022/06/12 08:12:25;;;;;;;16.77;3.45;;;16.90;99.90;;;;;;5050643;28;20169;-66
2022/06/12 08:14:53;;;;;;;18.05;3.55;;;17.00;99.90;;;;;;5050834;28;20690;-66
2022/06/12 08:17:19;;;;;;;16.77;3.67;;;17.30;99.90;;;;;;5051368;28;20235;-65
2022/06/12 08:22:29;;;;;;;15.32;3.75;;;16.90;99.90;;;;;;5051903;28;20243;-65
2022/06/12 08:24:54;;;;;;;20.50;3.70;;;17.10;99.90;;;;;;5049184;28;20177;-65
2022/06/12 08:27:20;;;;;;;16.60;3.20;;;17.30;99.90;;;;;;5051195;28;20169;-64
2022/06/12 08:29:46;;;;;;;15.15;3.58;;;17.20;99.90;;;;;;5051129;28;20181;-64
2022/06/12 08:32:16;;;;;;;19.15;4.13;;;17.40;99.90;;;;;;5051342;28;20173;-65
2022/06/12 08:34:51;;;;;;;14.75;3.53;;;17.40;99.90;;;;;;5050994;28;20252;-65
2022/06/12 08:37:21;;;;;;;14.85;4.03;;;17.40;99.90;;;;;;5049973;28;20421;-65
2022/06/12 08:39:49;;;;;;;12.82;3.13;;;17.40;99.90;;;;;;5051412;28;20197;-64
2022/06/12 08:42:18;;;;;;;9.93;2.40;;;17.60;99.90;;;;;;5050812;28;20507;-65
2022/06/12 08:44:49;;;;;;;14.65;3.05;;;18.10;99.90;;;;;;5048394;28;20245;-65
2022/06/12 08:47:44;;;;;;;15.27;2.92;;;18.40;99.90;;;;;;5050135;28;20227;-65
2022/06/12 08:50:10;;;;;;;14.82;2.55;;;18.70;99.90;;;;;;5049846;28;20236;-65
2022/06/12 08:52:44;;;;;;;13.48;2.78;;;18.70;99.90;;;;;;5050481;28;20230;-63
2022/06/12 08:55:29;;;;;;;21.23;4.15;;;18.60;99.90;;;;;;5050321;28;20187;-65
2022/06/12 08:58:03;;;;;;;19.13;3.80;;;18.20;99.90;;;;;;5048157;28;20652;-66
2022/06/12 09:00:32;;;;;;;17.85;3.03;;;18.40;99.90;;;;;;5050184;28;20184;-65
2022/06/12 09:02:58;;;;;;;17.08;3.53;;;18.60;99.90;;;;;;5050090;28;20174;-65
2022/06/12 09:05:46;;;;;;;16.77;3.10;;;18.80;99.90;;;;;;5050758;28;20213;-66
2022/06/12 09:08:14;;;;;;;18.45;3.25;;;18.30;99.90;;;;;;5050938;28;20179;-66
2022/06/12 09:10:54;;;;;;;12.38;2.80;;;18.40;99.90;;;;;;5050944;28;20170;-67
2022/06/12 09:13:30;;;;;;;12.65;2.83;;;19.00;99.90;;;;;;5031112;28;20178;-66
2022/06/12 09:16:21;;;;;;;10.00;2.60;;;19.00;99.90;;;;;;5031784;28;20898;-65
2022/06/12 09:18:58;;;;;;;13.45;2.60;;;18.70;99.90;;;;;;5050205;28;20640;-65
2022/06/12 09:21:24;;;;;;;12.88;2.63;;;18.50;99.90;;;;;;5049825;28;20242;-65
2022/06/12 09:24:10;;;;;;;12.77;2.72;;;18.50;99.90;;;;;;5050676;28;20699;-65
2022/06/12 09:26:48;;;;;;;12.75;3.00;;;18.50;99.90;;;;;;5051885;28;20215;-65
2022/06/12 09:29:23;;;;;;;13.18;2.75;;;18.50;99.90;;;;;;5050126;28;20177;-64
2022/06/12 09:32:04;;;;;;;10.43;2.50;;;18.60;99.90;;;;;;5050484;28;20679;-65
2022/06/12 09:34:42;;;;;;;10.25;2.53;;;18.90;99.90;;;;;;5050207;28;20173;-65
2022/06/12 09:40:12;;;;;;;13.07;2.70;;;19.10;99.90;;;;;;5034635;28;20637;-65
2022/06/12 09:43:00;;;;;;;11.50;2.55;;;19.50;99.90;;;;;;5033344;28;20197;-60
2022/06/12 09:45:49;;;;;;;14.77;2.88;;;19.50;99.90;;;;;;5019499;28;20651;-66
2022/06/12 09:48:38;;;;;;;14.40;2.72;;;19.40;99.90;;;;;;5049050;28;20264;-65
2022/06/12 09:51:25;;;;;;;19.02;3.17;;;19.70;99.90;;;;;;5049730;28;20244;-65
2022/06/12 09:54:27;;;;;;;13.25;2.75;;;19.60;99.90;;;;;;5050271;28;20196;-65
2022/06/12 09:57:38;;;;;;;12.07;3.30;;;19.30;99.90;;;;;;5030261;28;20201;-66
2022/06/12 10:00:16;;;;;;;13.63;2.75;;;19.40;99.90;;;;;;5007291;28;20178;-66
2022/06/12 10:03:03;;;;;;;9.30;2.70;;;19.50;99.90;;;;;;5045975;28;20267;-66
2022/06/12 10:05:38;;;;;;;12.90;3.35;;;20.20;99.90;;;;;;5050192;28;20632;-65
2022/06/12 10:08:11;;;;;;;15.88;2.88;;;20.50;99.90;;;;;;5050082;28;20173;-64
2022/06/12 10:10:43;;;;;;;11.00;2.50;;;21.00;99.90;;;;;;5049981;28;20169;-65
2022/06/12 10:13:14;;;;;;;16.85;2.83;;;20.10;99.90;;;;;;5049811;28;20703;-65
2022/06/12 10:15:45;;;;;;;14.55;2.80;;;20.40;99.90;;;;;;5050025;28;20789;-66
2022/06/12 10:18:44;;;;;;;10.02;2.55;;;20.40;99.90;;;;;;5049342;28;20279;-66
2022/06/12 10:21:16;;;;;;;18.10;3.50;;;20.40;99.90;;;;;;5038599;28;20190;-66
2022/06/12 10:23:42;;;;;;;10.60;3.03;;;20.40;99.90;;;;;;5050130;28;20197;-67
2022/06/12 10:26:20;;;;;;;13.98;3.03;;;20.60;99.90;;;;;;5048264;28;20259;-66
2022/06/12 10:29:09;;;;;;;12.70;2.58;;;20.90;99.90;;;;;;5050156;28;20202;-67
2022/06/12 10:32:04;;;;;;;13.48;2.85;;;20.90;99.90;;;;;;5031503;28;20177;-66
2022/06/12 10:34:32;;;;;;;13.60;3.15;;;20.50;99.90;;;;;;5029925;28;20217;-66
2022/06/12 10:37:19;;;;;;;15.90;3.17;;;20.60;99.90;;;;;;5046323;28;20173;-66
2022/06/12 10:39:45;;;;;;;12.15;3.35;;;21.50;99.90;;;;;;5050151;28;20276;-66
2022/06/12 10:42:31;;;;;;;12.07;3.05;;;21.30;99.90;;;;;;5049978;28;20165;-65
2022/06/12 10:44:58;;;;;;;10.45;2.70;;;21.30;99.90;;;;;;5049892;28;20223;-66
2022/06/12 10:47:32;;;;;;;12.73;2.60;;;21.50;99.90;;;;;;5049508;28;20648;-65
2022/06/12 10:50:13;;;;;;;11.85;2.90;;;21.40;99.90;;;;;;5050033;28;20648;-66
2022/06/12 10:52:54;;;;;;;12.90;2.95;;;21.20;99.90;;;;;;5050079;28;20247;-63
2022/06/12 10:55:34;;;;;;;16.08;2.95;;;21.60;99.90;;;;;;5050087;28;20169;-64
2022/06/12 10:58:06;;;;;;;15.73;2.90;;;21.50;99.90;;;;;;5053515;28;20650;-64
2022/06/12 11:00:39;;;;;;;13.73;3.05;;;21.70;99.90;;;;;;5053770;28;20165;-65
2022/06/12 11:03:20;;;;;;;14.60;3.20;;;21.50;99.90;;;;;;5053616;28;20176;-65
2022/06/12 11:06:11;;;;;;;19.20;3.40;;;21.60;99.90;;;;;;5053494;28;20332;-64
2022/06/12 11:09:06;;;;;;;10.30;3.15;;;22.00;99.90;;;;;;5052877;28;20644;-64
2022/06/12 11:11:38;;;;;;;10.52;2.85;;;21.90;99.90;;;;;;5053398;28;20176;-63
2022/06/12 11:14:28;;;;;;;14.85;3.97;;;21.80;99.90;;;;;;5053453;28;20177;-63
2022/06/12 11:17:18;;;;;;;12.77;3.10;;;22.20;99.90;;;;;;5052692;28;20172;-65
2022/06/12 11:19:59;;;;;;;15.27;3.03;;;22.60;99.90;;;;;;5052556;28;20185;-65
2022/06/12 11:22:28;;;;;;;14.57;3.00;;;22.50;99.90;;;;;;5053242;28;20639;-65
2022/06/12 11:25:31;;;;;;;14.13;3.40;;;22.40;99.90;;;;;;5052893;28;20174;-65
2022/06/12 11:28:13;;;;;;;14.10;3.42;;;22.50;99.90;;;;;;5053006;28;20185;-65
2022/06/12 11:30:51;;;;;;;14.27;3.58;;;22.60;99.90;;;;;;5052973;28;20203;-64
2022/06/12 11:33:27;;;;;;;15.68;3.13;;;21.70;99.90;;;;;;5052950;28;20177;-64
2022/06/12 11:36:22;;;;;;;16.83;3.72;;;21.40;99.90;;;;;;5052882;28;20587;-65
2022/06/12 11:38:53;;;;;;;16.95;3.58;;;21.60;99.90;;;;;;4998659;28;20320;-64
2022/06/12 11:41:35;;;;;;;17.55;3.03;;;22.20;99.90;;;;;;5052650;28;20165;-65
2022/06/12 11:44:33;;;;;;;14.52;3.28;;;22.00;99.90;;;;;;5053061;28;20168;-66
2022/06/12 11:47:12;;;;;;;10.98;2.92;;;22.30;99.90;;;;;;5052604;28;20223;-65
2022/06/12 11:49:44;;;;;;;16.40;3.20;;;21.80;99.90;;;;;;5052362;28;20173;-65
2022/06/12 11:52:25;;;;;;;13.85;2.92;;;21.30;99.90;;;;;;5052557;28;20217;-64
2022/06/12 11:55:17;;;;;;;12.60;3.33;;;21.20;99.90;;;;;;5052333;28;20169;-65
2022/06/12 11:57:58;;;;;;;15.32;3.50;;;21.60;99.90;;;;;;5050625;28;20173;-65
2022/06/12 12:00:42;;;;;;;15.55;2.80;;;21.80;99.90;;;;;;5050484;28;20676;-65
2022/06/12 12:03:39;;;;;;;15.45;3.60;;;21.70;99.90;;;;;;5051715;28;20184;-66
2022/06/12 12:06:25;;;;;;;17.02;3.90;;;21.90;99.90;;;;;;5052488;28;20874;-66
2022/06/12 12:09:11;;;;;;;14.00;3.40;;;21.40;99.90;;;;;;5051107;28;20177;-65
2022/06/12 12:11:47;;;;;;;15.95;3.90;;;22.30;99.90;;;;;;5051546;28;20201;-65
2022/06/12 12:14:22;;;;;;;21.95;3.97;;;23.00;99.90;;;;;;5051441;28;20168;-66
2022/06/12 12:16:53;;;;;;;18.45;3.55;;;22.70;99.90;;;;;;5051286;28;20165;-65
2022/06/12 12:19:30;;;;;;;14.45;3.78;;;22.40;99.90;;;;;;5051224;28;20260;-65
2022/06/12 12:22:09;;;;;;;15.93;3.03;;;22.30;99.90;;;;;;5050427;28;20304;-66
2022/06/12 12:24:49;;;;;;;21.70;3.63;;;22.10;99.90;;;;;;5049262;28;20318;-64
2022/06/12 12:27:37;;;;;;;24.70;4.38;;;21.50;99.90;;;;;;5049991;28;20346;-64
2022/06/12 12:30:13;;;;;;;15.88;3.60;;;21.80;99.90;;;;;;5050112;28;20162;-65
2022/06/12 12:32:39;;;;;;;16.90;4.35;;;21.40;99.90;;;;;;5049755;28;20188;-65
2022/06/12 12:35:05;;;;;;;21.77;3.92;;;21.50;99.90;;;;;;5049908;28;20667;-65
2022/06/12 12:43:19;;;;;;;18.75;3.85;;;21.40;99.90;;;;;;5048746;28;20234;-65
2022/06/12 12:45:45;;;;;;;15.18;3.83;;;21.70;99.90;;;;;;5051049;28;20205;-65
2022/06/12 12:48:13;;;;;;;16.00;3.65;;;22.30;99.90;;;;;;5051224;28;20221;-66
2022/06/12 12:50:42;;;;;;;15.15;3.55;;;22.20;99.90;;;;;;5050806;28;20740;-66
2022/06/12 12:53:20;;;;;;;25.27;5.10;;;22.70;99.90;;;;;;5049700;28;20643;-66
2022/06/12 12:56:00;;;;;;;15.25;3.78;;;22.90;99.90;;;;;;5049734;28;20188;-66
2022/06/12 12:58:26;;;;;;;21.52;4.45;;;22.70;99.90;;;;;;5049648;28;20180;-64
2022/06/12 13:01:16;;;;;;;17.20;4.03;;;23.10;99.90;;;;;;5049810;28;20173;-65
2022/06/12 13:03:48;;;;;;;19.88;4.57;;;23.30;99.90;;;;;;5048773;28;20196;-65
2022/06/12 13:06:28;;;;;;;17.13;3.35;;;23.60;99.90;;;;;;5048063;28;20258;-65
2022/06/12 13:09:02;;;;;;;16.27;4.10;;;23.40;99.90;;;;;;5049549;28;20208;-65
2022/06/12 13:11:39;;;;;;;20.25;4.10;;;23.30;99.90;;;;;;5051129;28;20181;-65
2022/06/12 13:14:20;;;;;;;15.50;3.90;;;23.80;99.90;;;;;;5050417;28;20593;-65
2022/06/12 13:16:52;;;;;;;16.13;3.85;;;22.80;99.90;;;;;;5050305;28;20180;-65
2022/06/12 13:19:44;;;;;;;14.23;3.85;;;22.40;99.90;;;;;;5060526;28;20187;-65
2022/06/12 13:22:31;;;;;;;15.45;3.78;;;21.80;99.90;;;;;;5053638;28;20165;-66
2022/06/12 13:25:04;;;;;;;10.07;2.70;;;21.90;99.90;;;;;;5047052;28;20662;-65
2022/06/12 13:27:48;;;;;;;20.17;3.70;;;22.90;99.90;;;;;;5048714;28;20195;-66
2022/06/12 13:30:21;;;;;;;16.67;3.38;;;22.40;99.90;;;;;;5070278;28;20247;-64
2022/06/12 13:32:46;;;;;;;14.65;3.72;;;22.20;99.90;;;;;;5050489;28;20172;-65